createdAt,value
2017-09-12T00:00:46.252Z,71.60
2017-09-12T00:03:14.540Z,72.10
2017-09-12T00:05:42.851Z,71.70
2017-09-12T00:08:11.745Z,71.80
2017-09-12T00:10:40.050Z,71.70
2017-09-12T00:13:08.444Z,71.80
2017-09-12T00:15:37.667Z,71.60
2017-09-12T00:18:06.480Z,71.80
2017-09-12T00:20:34.776Z,71.60
2017-09-12T00:23:03.061Z,71.80
2017-09-12T00:25:31.412Z,72.30
2017-09-12T00:27:59.885Z,72.00
2017-09-12T00:30:28.205Z,71.80
2017-09-12T00:32:56.495Z,72.10
2017-09-12T00:35:24.833Z,72.30
2017-09-12T00:37:53.148Z,71.80
2017-09-12T00:40:21.520Z,72.20
2017-09-12T00:42:49.834Z,71.90
2017-09-12T00:45:18.148Z,71.90
2017-09-12T00:47:46.462Z,71.90
2017-09-12T00:50:14.754Z,73.00
2017-09-12T00:52:43.101Z,72.30
2017-09-12T00:55:11.385Z,71.70
2017-09-12T00:57:39.687Z,71.80
2017-09-12T01:00:07.992Z,72.00
2017-09-12T01:02:36.277Z,72.10
2017-09-12T01:05:04.640Z,72.60
2017-09-12T01:07:32.930Z,72.90
2017-09-12T01:10:01.215Z,73.20
2017-09-12T01:12:29.696Z,73.50
2017-09-12T01:14:58.051Z,73.50
2017-09-12T01:17:26.342Z,73.70
2017-09-12T01:19:54.695Z,74.20
2017-09-12T01:22:22.978Z,74.50
2017-09-12T01:24:51.311Z,74.70
2017-09-12T01:27:19.598Z,74.70
2017-09-12T01:29:47.962Z,75.10
2017-09-12T01:32:16.244Z,75.30
2017-09-12T01:34:44.814Z,75.30
2017-09-12T01:37:14.094Z,75.40
2017-09-12T01:39:42.389Z,75.10
2017-09-12T01:42:10.714Z,75.60
2017-09-12T01:44:39.013Z,75.30
2017-09-12T01:47:07.385Z,75.80
2017-09-12T01:49:35.785Z,76.10
2017-09-12T01:52:04.071Z,76.30
2017-09-12T01:54:32.425Z,76.40
2017-09-12T01:57:00.710Z,76.90
2017-09-12T01:59:29.071Z,77.70
2017-09-12T02:01:57.355Z,77.70
2017-09-12T02:04:25.685Z,77.90
2017-09-12T02:06:53.999Z,78.20
2017-09-12T02:09:22.746Z,77.80
2017-09-12T02:11:51.071Z,77.80
2017-09-12T02:14:19.392Z,77.80
2017-09-12T02:16:48.589Z,78.00
2017-09-12T02:19:17.625Z,77.50
2017-09-12T02:21:46.542Z,77.20
2017-09-12T02:24:14.901Z,77.30
2017-09-12T02:26:43.326Z,77.30
2017-09-12T02:29:11.634Z,77.20
2017-09-12T02:31:39.963Z,77.50
2017-09-12T02:34:08.291Z,77.20
2017-09-12T02:36:36.574Z,76.80
2017-09-12T02:39:04.869Z,77.20
2017-09-12T02:41:33.356Z,77.70
2017-09-12T02:44:02.192Z,78.00
2017-09-12T02:46:30.514Z,78.00
2017-09-12T02:48:58.809Z,77.90
2017-09-12T02:51:27.107Z,77.80
2017-09-12T02:53:55.429Z,78.00
2017-09-12T02:56:23.717Z,78.50
2017-09-12T02:58:52.002Z,78.70
2017-09-12T03:01:20.316Z,78.80
2017-09-12T03:03:48.607Z,78.90
2017-09-12T03:06:16.933Z,79.30
2017-09-12T03:08:45.301Z,79.30
2017-09-12T03:11:13.599Z,80.00
2017-09-12T03:13:41.915Z,79.40
2017-09-12T03:16:10.251Z,79.30
2017-09-12T03:18:38.535Z,80.00
2017-09-12T03:21:06.849Z,80.30
2017-09-12T03:23:35.169Z,80.80
2017-09-12T03:26:03.458Z,80.30
2017-09-12T03:28:31.801Z,80.70
2017-09-12T03:31:00.142Z,80.60
2017-09-12T03:33:28.468Z,80.70
2017-09-12T03:35:56.865Z,80.60
2017-09-12T03:38:25.144Z,81.20
2017-09-12T03:40:53.462Z,81.70
2017-09-12T03:43:21.781Z,81.10
2017-09-12T03:45:50.069Z,81.20
2017-09-12T03:48:18.372Z,82.00
2017-09-12T03:50:46.855Z,82.50
2017-09-12T03:53:15.174Z,82.50
2017-09-12T03:55:43.491Z,82.20
2017-09-12T03:58:11.781Z,82.50
2017-09-12T04:00:40.092Z,83.10
2017-09-12T04:03:08.571Z,82.50
2017-09-12T04:05:36.854Z,82.50
2017-09-12T04:08:05.140Z,82.80
2017-09-12T04:10:33.541Z,82.50
2017-09-12T04:13:02.447Z,82.40
2017-09-12T04:15:31.481Z,82.70
2017-09-12T04:17:59.796Z,82.50
2017-09-12T04:20:28.324Z,82.60
2017-09-12T04:22:56.617Z,82.60
2017-09-12T04:25:26.081Z,83.40
2017-09-12T04:27:54.393Z,83.20
2017-09-12T04:30:22.737Z,83.00
2017-09-12T04:32:51.054Z,83.30
2017-09-12T04:35:19.366Z,82.90
2017-09-12T04:37:47.655Z,83.20
2017-09-12T04:40:15.968Z,82.90
2017-09-12T04:42:44.279Z,83.10
2017-09-12T04:45:12.594Z,83.30
2017-09-12T04:47:40.917Z,83.20
2017-09-12T04:50:09.241Z,83.70
2017-09-12T04:52:37.534Z,83.40
2017-09-12T04:55:05.874Z,83.90
2017-09-12T04:57:34.208Z,84.00
2017-09-12T05:00:02.505Z,84.10
2017-09-12T05:02:31.672Z,84.40
2017-09-12T05:04:59.968Z,84.00
2017-09-12T05:07:28.261Z,83.60
2017-09-12T05:09:56.594Z,83.60
2017-09-12T05:12:24.879Z,83.30
2017-09-12T05:14:53.191Z,83.30
2017-09-12T05:17:21.508Z,83.50
2017-09-12T05:19:49.790Z,83.20
2017-09-12T05:22:18.102Z,82.60
2017-09-12T05:24:50.234Z,82.80
2017-09-12T05:27:18.545Z,83.30
2017-09-12T05:29:46.841Z,84.20
2017-09-12T05:32:15.162Z,84.50
2017-09-12T05:34:43.476Z,85.50
2017-09-12T05:37:11.792Z,86.10
2017-09-12T05:39:40.113Z,86.50
2017-09-12T05:42:08.429Z,86.30
2017-09-12T05:44:36.734Z,86.60
2017-09-12T05:47:05.056Z,86.50
2017-09-12T05:49:33.358Z,86.40
2017-09-12T05:52:01.679Z,85.70
2017-09-12T05:54:29.999Z,85.30
2017-09-12T05:56:58.282Z,85.60
2017-09-12T05:59:26.611Z,85.30
2017-09-12T06:01:55.708Z,84.50
2017-09-12T06:04:24.007Z,83.60
2017-09-12T06:06:52.401Z,82.90
2017-09-12T06:09:20.721Z,83.30
2017-09-12T06:11:49.077Z,83.00
2017-09-12T06:14:17.510Z,82.70
2017-09-12T06:16:52.465Z,82.40
2017-09-12T06:19:21.073Z,81.30
2017-09-12T06:21:49.404Z,81.40
2017-09-12T06:24:17.693Z,81.50
2017-09-12T06:26:46.360Z,79.30
2017-09-12T06:29:14.675Z,79.60
2017-09-12T06:31:42.984Z,78.40
2017-09-12T06:34:11.297Z,77.10
2017-09-12T06:36:39.588Z,75.40
2017-09-12T06:39:07.919Z,75.10
2017-09-12T06:41:36.232Z,76.70
2017-09-12T06:44:04.543Z,77.20
2017-09-12T06:46:32.865Z,77.80
2017-09-12T06:49:01.195Z,77.00
2017-09-12T06:51:29.495Z,77.60
2017-09-12T06:53:57.782Z,76.90
2017-09-12T06:56:26.103Z,74.10
2017-09-12T06:58:54.421Z,73.90
2017-09-12T07:01:22.715Z,72.80
2017-09-12T07:03:51.057Z,73.40
2017-09-12T07:06:19.370Z,70.80
2017-09-12T07:08:47.689Z,67.70
2017-09-12T07:11:15.976Z,64.70
2017-09-12T07:13:44.282Z,63.80
2017-09-12T07:16:12.602Z,63.10
2017-09-12T07:18:41.000Z,61.70
2017-09-12T07:21:09.290Z,62.00
2017-09-12T07:23:37.634Z,62.10
2017-09-12T07:26:10.870Z,62.80
2017-09-12T07:28:39.185Z,64.20
2017-09-12T07:31:07.512Z,66.00
2017-09-12T07:33:35.842Z,67.70
2017-09-12T07:36:04.191Z,67.90
2017-09-12T07:38:32.481Z,68.30
2017-09-12T07:41:00.823Z,68.40
2017-09-12T07:43:29.117Z,69.20
2017-09-12T07:45:57.463Z,69.60
2017-09-12T07:48:25.811Z,70.90
2017-09-12T07:50:54.350Z,71.00
2017-09-12T07:53:22.665Z,71.50
2017-09-12T07:55:50.998Z,72.00
2017-09-12T07:58:19.292Z,72.70
2017-09-12T08:00:47.584Z,72.80
2017-09-12T08:03:15.928Z,73.80
2017-09-12T08:05:44.227Z,73.80
2017-09-12T08:08:12.528Z,74.00
2017-09-12T08:10:40.873Z,74.40
2017-09-12T08:13:09.164Z,72.80
2017-09-12T08:15:37.449Z,74.40
2017-09-12T08:18:05.772Z,74.30
2017-09-12T08:20:34.085Z,73.40
2017-09-12T08:23:03.002Z,73.90
2017-09-12T08:25:32.210Z,73.20
2017-09-12T08:28:01.609Z,71.60
2017-09-12T08:30:29.909Z,71.70
2017-09-12T08:32:58.234Z,71.80
2017-09-12T08:35:26.520Z,71.10
2017-09-12T08:37:54.868Z,70.80
2017-09-12T08:40:23.178Z,69.60
2017-09-12T08:42:51.482Z,68.60
2017-09-12T08:45:20.568Z,59.50
2017-09-12T08:47:48.976Z,60.00
2017-09-12T08:50:17.265Z,58.80
2017-09-12T08:52:45.589Z,57.60
2017-09-12T08:55:13.931Z,57.60
2017-09-12T08:57:42.232Z,55.10
2017-09-12T09:00:10.578Z,54.20
2017-09-12T09:02:38.905Z,55.70
2017-09-12T09:05:07.189Z,56.40
2017-09-12T09:07:35.476Z,57.30
2017-09-12T09:10:03.801Z,54.10
2017-09-12T09:12:32.677Z,54.00
2017-09-12T09:15:00.977Z,53.90
2017-09-12T09:17:29.293Z,53.70
2017-09-12T09:19:57.648Z,53.10
2017-09-12T09:22:25.935Z,51.30
2017-09-12T09:25:32.146Z,51.90
2017-09-12T09:28:00.460Z,51.70
2017-09-12T09:30:28.852Z,48.30
2017-09-12T09:32:57.141Z,48.40
2017-09-12T09:35:25.435Z,50.90
2017-09-12T09:37:54.845Z,50.40
2017-09-12T09:40:23.906Z,49.20
2017-09-12T09:42:53.005Z,49.20
2017-09-12T09:45:21.303Z,49.10
2017-09-12T09:47:49.630Z,52.70
2017-09-12T09:50:17.964Z,51.90
2017-09-12T09:52:46.250Z,52.70
2017-09-12T09:55:15.164Z,51.90
2017-09-12T09:57:43.500Z,54.30
2017-09-12T10:00:11.998Z,55.00
2017-09-12T10:02:40.317Z,55.40
2017-09-12T10:05:08.620Z,55.80
2017-09-12T10:07:36.991Z,55.60
2017-09-12T10:10:05.280Z,55.30
2017-09-12T10:12:33.565Z,53.80
2017-09-12T10:15:02.645Z,51.10
2017-09-12T10:17:30.936Z,51.00
2017-09-12T10:19:59.270Z,50.10
2017-09-12T10:22:27.642Z,50.20
2017-09-12T10:24:55.936Z,50.00
2017-09-12T10:27:24.251Z,51.40
2017-09-12T10:29:52.598Z,53.70
2017-09-12T10:32:20.889Z,54.90
2017-09-12T10:34:49.944Z,56.50
2017-09-12T10:37:19.059Z,57.00
2017-09-12T10:39:47.460Z,57.10
2017-09-12T10:42:16.517Z,58.00
2017-09-12T10:44:46.386Z,55.00
2017-09-12T10:47:15.575Z,54.90
2017-09-12T10:49:45.294Z,54.20
2017-09-12T10:52:13.689Z,54.10
2017-09-12T10:54:42.011Z,51.40
2017-09-12T10:57:10.320Z,51.50
2017-09-12T10:59:39.417Z,49.90
2017-09-12T11:02:07.718Z,50.10
2017-09-12T11:04:36.005Z,51.20
2017-09-12T11:07:04.319Z,52.60
2017-09-12T11:09:32.621Z,52.00
2017-09-12T11:12:01.759Z,52.10
2017-09-12T11:14:30.941Z,52.70
2017-09-12T11:16:59.341Z,52.70
2017-09-12T11:19:27.666Z,53.20
2017-09-12T11:21:56.035Z,53.60
2017-09-12T11:24:24.334Z,52.30
2017-09-12T11:26:52.617Z,51.80
2017-09-12T11:29:21.716Z,52.10
2017-09-12T11:31:50.005Z,52.10
2017-09-12T11:34:18.302Z,51.70
2017-09-12T11:36:47.393Z,51.20
2017-09-12T11:39:16.202Z,51.10
2017-09-12T11:41:45.037Z,51.10
2017-09-12T11:44:13.398Z,50.60
2017-09-12T11:46:41.739Z,50.70
2017-09-12T11:49:10.117Z,51.70
2017-09-12T11:51:38.409Z,54.00
2017-09-12T11:54:07.486Z,55.30
2017-09-12T11:56:36.547Z,56.80
2017-09-12T11:59:04.910Z,56.80
2017-09-12T12:01:33.973Z,55.90
2017-09-12T12:04:02.349Z,55.90
2017-09-12T12:06:30.698Z,55.10
2017-09-12T12:08:59.002Z,55.50
2017-09-12T12:11:27.293Z,55.70
2017-09-12T12:13:55.628Z,57.40
2017-09-12T12:16:23.927Z,54.10
2017-09-12T12:18:53.191Z,55.00
2017-09-12T12:21:22.313Z,54.60
2017-09-12T12:23:50.618Z,54.60
2017-09-12T12:26:19.728Z,55.90
2017-09-12T12:28:48.047Z,55.70
2017-09-12T12:31:17.124Z,55.60
2017-09-12T12:33:46.257Z,55.90
2017-09-12T12:36:15.456Z,55.80
2017-09-12T12:38:45.564Z,55.20
2017-09-12T12:41:15.358Z,55.30
2017-09-12T12:43:43.677Z,55.50
2017-09-12T12:46:12.030Z,50.60
2017-09-12T12:48:40.342Z,52.40
2017-09-12T12:51:08.642Z,51.70
2017-09-12T12:53:36.986Z,48.00
2017-09-12T12:56:05.277Z,47.20
2017-09-12T12:58:34.336Z,47.70
2017-09-12T13:01:03.425Z,46.60
2017-09-12T13:03:31.730Z,46.60
2017-09-12T13:06:00.036Z,46.40
2017-09-12T13:08:28.355Z,43.80
2017-09-12T13:10:56.675Z,44.40
2017-09-12T13:13:24.974Z,42.20
2017-09-12T13:15:54.068Z,42.70
2017-09-12T13:18:22.414Z,42.60
2017-09-12T13:20:51.517Z,44.60
2017-09-12T13:23:19.837Z,44.40
2017-09-12T13:25:48.144Z,43.90
2017-09-12T13:28:16.517Z,44.40
2017-09-12T13:30:45.956Z,46.10
2017-09-12T13:33:14.253Z,46.10
2017-09-12T13:35:42.577Z,43.00
2017-09-12T13:38:10.877Z,43.40
2017-09-12T13:40:39.191Z,44.50
2017-09-12T13:43:07.514Z,45.10
2017-09-12T13:45:35.818Z,45.90
2017-09-12T13:48:04.913Z,48.50
2017-09-12T13:50:33.253Z,48.50
2017-09-12T13:53:02.349Z,49.20
2017-09-12T13:55:30.645Z,49.20
2017-09-12T13:57:58.963Z,49.60
2017-09-12T14:00:27.344Z,50.40
2017-09-12T14:02:55.661Z,50.40
2017-09-12T14:05:23.973Z,51.10
2017-09-12T14:07:53.056Z,52.10
2017-09-12T14:10:22.142Z,52.50
2017-09-12T14:12:50.461Z,52.40
2017-09-12T14:15:18.986Z,52.80
2017-09-12T14:17:47.308Z,51.80
2017-09-12T14:20:16.010Z,49.80
2017-09-12T14:22:45.418Z,51.20
2017-09-12T14:25:13.726Z,51.40
2017-09-12T14:27:42.831Z,49.90
2017-09-12T14:30:11.123Z,49.90
2017-09-12T14:32:39.416Z,49.30
2017-09-12T14:35:08.493Z,49.90
2017-09-12T14:37:37.593Z,52.80
2017-09-12T14:40:05.887Z,52.80
2017-09-12T14:42:34.971Z,53.60
2017-09-12T14:45:04.189Z,53.40
2017-09-12T14:47:32.545Z,52.70
2017-09-12T14:50:00.856Z,50.50
2017-09-12T14:52:29.147Z,50.60
2017-09-12T14:54:58.215Z,42.40
2017-09-12T14:57:27.312Z,44.10
2017-09-12T14:59:55.641Z,43.40
2017-09-12T15:02:24.694Z,44.00
2017-09-12T15:04:53.032Z,43.30
2017-09-12T15:07:21.498Z,43.00
2017-09-12T15:09:49.823Z,44.60
2017-09-12T15:12:18.154Z,42.40
2017-09-12T15:14:46.434Z,43.10
2017-09-12T15:17:15.489Z,45.40
2017-09-12T15:19:44.576Z,45.50
2017-09-12T15:22:12.872Z,45.50
2017-09-12T15:24:41.162Z,46.90
2017-09-12T15:27:10.234Z,48.10
2017-09-12T15:29:38.565Z,48.10
2017-09-12T15:32:06.888Z,47.20
2017-09-12T15:34:35.205Z,48.10
2017-09-12T15:37:04.303Z,48.80
2017-09-12T15:39:32.611Z,48.80
2017-09-12T15:42:00.909Z,48.20
2017-09-12T15:44:29.343Z,48.50
2017-09-12T15:46:58.485Z,51.90
2017-09-12T15:49:26.818Z,51.90
2017-09-12T15:51:55.129Z,54.90
2017-09-12T15:54:23.452Z,58.30
2017-09-12T15:56:51.759Z,60.40
2017-09-12T15:59:20.093Z,61.50
2017-09-12T16:01:49.169Z,66.20
2017-09-12T16:04:18.271Z,68.70
2017-09-12T16:06:46.569Z,68.60
2017-09-12T16:09:15.634Z,72.10
2017-09-12T16:11:44.730Z,73.90
2017-09-12T16:14:13.789Z,73.30
2017-09-12T16:16:42.871Z,71.00
2017-09-12T16:19:11.198Z,71.00
2017-09-12T16:21:40.457Z,74.00
2017-09-12T16:24:09.562Z,74.50
2017-09-12T16:26:39.282Z,79.00
2017-09-12T16:29:08.377Z,79.00
2017-09-12T16:31:36.737Z,79.20
2017-09-12T16:34:05.029Z,75.90
2017-09-12T16:36:33.362Z,73.90
2017-09-12T16:39:01.653Z,77.10
2017-09-12T16:41:29.941Z,76.20
2017-09-12T16:43:58.262Z,76.50
2017-09-12T16:46:26.549Z,78.20
2017-09-12T16:48:54.845Z,79.80
2017-09-12T16:51:23.938Z,81.20
2017-09-12T16:53:52.225Z,81.20
2017-09-12T16:56:20.535Z,79.20
2017-09-12T16:58:48.848Z,82.00
2017-09-12T17:01:17.183Z,83.20
2017-09-12T17:03:59.516Z,83.50
2017-09-12T17:06:28.982Z,82.10
2017-09-12T17:08:57.399Z,82.90
2017-09-12T17:11:25.788Z,80.30
2017-09-12T17:13:54.096Z,78.60
2017-09-12T17:16:22.405Z,76.40
2017-09-12T17:18:51.637Z,79.50
2017-09-12T17:21:20.013Z,79.90
2017-09-12T17:23:48.296Z,78.40
2017-09-12T17:26:16.592Z,80.90
2017-09-12T17:28:44.903Z,80.30
2017-09-12T17:31:13.336Z,79.40
2017-09-12T17:33:41.611Z,82.00
2017-09-12T17:36:09.910Z,81.50
2017-09-12T17:38:38.215Z,80.60
2017-09-12T17:41:06.535Z,80.80
2017-09-12T17:43:34.847Z,78.40
2017-09-12T17:46:03.140Z,77.40
2017-09-12T17:48:31.429Z,81.20
2017-09-12T17:50:59.786Z,79.30
2017-09-12T17:53:28.149Z,78.60
2017-09-12T17:55:57.258Z,82.10
2017-09-12T17:58:25.679Z,82.80
2017-09-12T18:00:53.994Z,79.90
2017-09-12T18:03:23.128Z,84.10
2017-09-12T18:05:51.453Z,84.20
2017-09-12T18:08:19.945Z,83.00
2017-09-12T18:10:48.287Z,85.20
2017-09-12T18:13:18.036Z,86.50
2017-09-12T18:15:47.820Z,88.30
2017-09-12T18:18:17.031Z,88.80
2017-09-12T18:20:45.605Z,88.80
2017-09-12T18:23:13.927Z,89.00
2017-09-12T18:25:42.212Z,88.80
2017-09-12T18:28:10.545Z,89.80
2017-09-12T18:30:38.829Z,90.60
2017-09-12T18:33:07.171Z,89.10
2017-09-12T18:35:35.448Z,89.10
2017-09-12T18:38:04.526Z,90.10
2017-09-12T18:40:32.859Z,90.10
2017-09-12T18:43:01.202Z,90.00
2017-09-12T18:45:29.547Z,88.80
2017-09-12T18:47:58.626Z,88.30
2017-09-12T18:50:26.911Z,88.30
2017-09-12T18:52:55.265Z,86.70
2017-09-12T18:55:23.627Z,87.20
2017-09-12T18:57:51.908Z,87.10
2017-09-12T19:00:21.014Z,91.60
2017-09-12T19:02:49.468Z,91.60
2017-09-12T19:05:17.782Z,92.00
2017-09-12T19:07:46.117Z,93.20
2017-09-12T19:10:15.389Z,92.40
2017-09-12T19:12:43.713Z,86.50
2017-09-12T19:15:12.027Z,87.60
2017-09-12T19:17:40.310Z,87.00
2017-09-12T19:20:08.627Z,84.80
2017-09-12T19:22:37.937Z,85.10
2017-09-12T19:25:06.243Z,84.90
2017-09-12T19:27:34.547Z,82.60
2017-09-12T19:30:02.885Z,82.80
2017-09-12T19:32:33.219Z,82.30
2017-09-12T19:35:01.555Z,82.30
2017-09-12T19:37:31.442Z,84.20
2017-09-12T19:40:04.219Z,83.30
2017-09-12T19:42:33.305Z,83.10
2017-09-12T19:45:01.651Z,83.20
2017-09-12T19:47:29.935Z,83.90
2017-09-12T19:49:59.063Z,84.50
2017-09-12T19:52:28.386Z,84.40
2017-09-12T19:54:56.713Z,86.10
2017-09-12T19:57:25.156Z,86.30
2017-09-12T19:59:53.451Z,86.20
2017-09-12T20:02:21.799Z,87.00
2017-09-12T20:04:50.132Z,89.00
2017-09-12T20:07:18.451Z,87.80
2017-09-12T20:09:49.493Z,88.00
2017-09-12T20:12:17.776Z,87.90
2017-09-12T20:14:46.124Z,88.00
2017-09-12T20:17:14.429Z,88.70
2017-09-12T20:19:42.715Z,89.20
2017-09-12T20:22:11.069Z,89.20
2017-09-12T20:24:39.371Z,89.80
2017-09-12T20:27:08.972Z,90.70
2017-09-12T20:29:38.046Z,91.70
2017-09-12T20:32:08.017Z,91.90
2017-09-12T20:34:36.929Z,92.10
2017-09-12T20:37:08.658Z,91.80
2017-09-12T20:39:36.988Z,91.80
2017-09-12T20:42:05.304Z,91.70
2017-09-12T20:44:33.643Z,91.50
2017-09-12T20:47:02.753Z,91.70
2017-09-12T20:49:31.062Z,91.60
2017-09-12T20:51:59.427Z,90.00
2017-09-12T20:54:27.725Z,90.20
2017-09-12T20:56:56.034Z,90.20
2017-09-12T20:59:25.209Z,91.10
2017-09-12T21:01:53.509Z,91.50
2017-09-12T21:04:21.801Z,92.00
2017-09-12T21:06:50.129Z,92.10
2017-09-12T21:09:18.450Z,92.30
2017-09-12T21:11:47.747Z,91.80
2017-09-12T21:14:16.098Z,91.40
2017-09-12T21:16:44.412Z,90.80
2017-09-12T21:19:12.884Z,90.10
2017-09-12T21:21:41.166Z,88.50
2017-09-12T21:24:09.447Z,88.00
2017-09-12T21:26:38.520Z,87.40
2017-09-12T21:29:07.576Z,87.20
2017-09-12T21:31:35.886Z,87.20
2017-09-12T21:34:04.244Z,86.90
2017-09-12T21:36:32.555Z,87.10
2017-09-12T21:39:00.865Z,87.10
2017-09-12T21:41:29.931Z,86.90
2017-09-12T21:43:59.025Z,87.30
2017-09-12T21:46:27.360Z,86.70
2017-09-12T21:48:56.455Z,88.20
2017-09-12T21:51:25.924Z,86.60
2017-09-12T21:53:55.087Z,87.20
2017-09-12T21:56:25.213Z,87.30
2017-09-12T21:58:53.551Z,87.40
2017-09-12T22:01:21.853Z,87.40
2017-09-12T22:03:50.942Z,86.50
2017-09-12T22:06:20.036Z,87.40
2017-09-12T22:08:48.343Z,87.70
2017-09-12T22:11:16.720Z,87.00
2017-09-12T22:13:45.956Z,86.90
2017-09-12T22:16:14.262Z,87.40
2017-09-12T22:18:42.600Z,87.00
2017-09-12T22:21:10.907Z,87.30
2017-09-12T22:23:39.187Z,86.30
2017-09-12T22:26:08.262Z,86.40
2017-09-12T22:28:39.263Z,86.70
2017-09-12T22:31:07.588Z,86.70
2017-09-12T22:33:35.892Z,87.20
2017-09-12T22:36:05.183Z,87.60
2017-09-12T22:38:33.487Z,87.70
2017-09-12T22:41:01.787Z,87.70
2017-09-12T22:43:30.141Z,87.70
2017-09-12T22:45:58.435Z,87.90
2017-09-12T22:48:26.718Z,88.00
2017-09-12T22:50:55.020Z,88.00
2017-09-12T22:53:23.334Z,88.10
2017-09-12T22:55:51.691Z,88.00
2017-09-12T22:58:19.982Z,88.20
2017-09-12T23:00:48.293Z,88.70
2017-09-12T23:03:16.586Z,88.60
2017-09-12T23:05:44.953Z,89.20
2017-09-12T23:08:13.238Z,90.10
2017-09-12T23:10:41.519Z,88.10
2017-09-12T23:13:09.831Z,88.80
2017-09-12T23:15:38.159Z,88.60
2017-09-12T23:18:06.435Z,89.00
2017-09-12T23:20:35.491Z,89.50
2017-09-12T23:23:04.575Z,89.30
2017-09-12T23:25:32.928Z,90.00
2017-09-12T23:28:01.207Z,90.30
2017-09-12T23:30:29.506Z,90.90
2017-09-12T23:32:57.833Z,91.30
2017-09-12T23:35:26.928Z,92.70
2017-09-12T23:37:55.211Z,92.70
2017-09-12T23:40:23.520Z,92.90
2017-09-12T23:42:53.212Z,94.60
2017-09-12T23:45:32.409Z,94.80
2017-09-12T23:48:00.735Z,94.80
2017-09-12T23:50:29.035Z,95.40
2017-09-12T23:52:57.390Z,95.40
2017-09-12T23:55:25.713Z,95.80
2017-09-12T23:57:54.639Z,96.20
